Change the Weather History Date:

Wednesday, February 5, 2014

  Actual Average (KUZA) Record (KUZA)
Temperature  
Mean Temperature 52 °F -  
Max Temperature 62 °F 52 °F 73 °F (2008)
Min Temperature 41 °F 31 °F 15 °F (2009)
Degree Days  
Heating Degree Days 14    
Growing Degree Days 2 (Base 50)    
Moisture  
Dew Point 42 °F    
Average Humidity 84    
Maximum Humidity 100    
Minimum Humidity 52    
Precipitation  
Precipitation 0.06 in - - ()
Sea Level Pressure  
Sea Level Pressure 29.95 in    
Wind  
Wind Speed 4 mph (WSW)    
Max Wind Speed 10 mph    
Max Gust Speed 17 mph    
Visibility 6 miles    
Events Rain    
Averages and records for this station are not official NWS values.
T = Trace of Precipitation, MM = Missing Value Source: NWS Daily Summary

Daily Weather History Graph

Daily Weather History Graph

Search for Another Location

Airport or City:

Trip Planner

Search our weather history database for the weather conditions in past years. The results will help you decide how hot, cold, wet, or windy it might be!

Date:

Astronomy

Feb. 05, 2014 Rise Set
Actual Time 7:20 AM EST 5:58 PM EST
Civil Twilight 6:53 AM EST 6:24 PM EST
Nautical Twilight 6:23 AM EST 6:54 PM EST
Astronomical Twilight 5:54 AM EST 7:23 PM EST
Moon 10:50 AM EST No Moon Set
Length of Visible Light 11h 30m
Length of Day
10h 38m
Waxing Crescent, 39% of the Moon is Illuminated
Feb 5
Waxing Crescent
Feb 6
First Quarter
Feb 14
Full
Feb 22
Last Quarter
Mar 1
New

Hourly Weather History & Observations

Time (EST) Temp. Windchill Dew Point Humidity Pressure Visibility Wind Dir Wind Speed Gust Speed Precip Events Conditions
12:15 AM 41.0 °F - 41.0 °F 100% 30.09 in 2.5 mi Calm Calm - N/A   Overcast
12:35 AM 41.0 °F 38.0 °F 41.0 °F 100% 30.09 in 3.0 mi North 4.6 mph - N/A   Overcast
12:55 AM 41.0 °F 38.0 °F 41.0 °F 100% 30.07 in 2.5 mi NE 4.6 mph - N/A   Overcast
1:15 AM 41.0 °F 37.1 °F 41.0 °F 100% 30.07 in 2.0 mi NE 5.8 mph - N/A   Overcast
1:35 AM 41.0 °F 39.0 °F 41.0 °F 100% 30.06 in 2.0 mi NNE 3.5 mph - N/A   Drizzle
1:55 AM 41.0 °F 37.1 °F 41.0 °F 100% 30.04 in 2.5 mi NE 5.8 mph - N/A   Overcast
2:15 AM 41.0 °F - 41.0 °F 100% 30.03 in 2.0 mi Calm Calm - N/A   Overcast
2:35 AM 41.0 °F 38.0 °F 41.0 °F 100% 30.02 in 1.8 mi NNE 4.6 mph - N/A   Light Drizzle
2:55 AM 41.0 °F 39.0 °F 41.0 °F 100% 30.00 in 1.8 mi NE 3.5 mph - N/A   Overcast
3:15 AM 41.0 °F 38.0 °F 41.0 °F 100% 29.99 in 2.5 mi East 4.6 mph - N/A   Overcast
3:35 AM 41.0 °F 39.0 °F 41.0 °F 100% 29.99 in 2.5 mi NE 3.5 mph - N/A   Overcast
3:55 AM 41.0 °F 37.1 °F 41.0 °F 100% 29.96 in 2.5 mi East 5.8 mph - N/A   Overcast
4:15 AM 41.0 °F 36.4 °F 41.0 °F 100% 29.92 in 1.0 mi ESE 6.9 mph - N/A   Overcast
4:35 AM 41.0 °F 38.0 °F 41.0 °F 100% 29.93 in 0.8 mi ESE 4.6 mph - N/A   Overcast
4:55 AM 41.0 °F 38.0 °F 41.0 °F 100% 29.97 in 0.8 mi NW 4.6 mph - N/A   Overcast
5:15 AM 41.0 °F 39.0 °F 41.0 °F 100% 29.96 in 1.2 mi NNW 3.5 mph - N/A Rain Rain
5:35 AM 41.0 °F 39.0 °F 41.0 °F 100% 29.94 in 1.5 mi North 3.5 mph - N/A   Light Drizzle
5:55 AM 41.0 °F 39.0 °F 41.0 °F 100% 29.94 in 2.0 mi NNE 3.5 mph - N/A   Overcast
6:15 AM 41.0 °F - 41.0 °F 100% 29.96 in 2.0 mi Calm Calm - N/A   Overcast
6:35 AM 41.0 °F - 41.0 °F 100% 29.94 in 1.8 mi Calm Calm - N/A   Overcast
6:55 AM 41.0 °F 37.1 °F 41.0 °F 100% 29.93 in 2.5 mi SE 5.8 mph - N/A   Light Drizzle
7:15 AM 41.0 °F 38.0 °F 41.0 °F 100% 29.92 in 3.0 mi SE 4.6 mph - 0.02 in Rain Light Rain
7:35 AM 41.0 °F 38.0 °F 41.0 °F 100% 29.92 in 5.0 mi SE 4.6 mph - 0.02 in   Overcast
7:55 AM 41.0 °F 38.0 °F 41.0 °F 100% 29.91 in 4.0 mi SSE 4.6 mph - 0.02 in   Unknown
8:15 AM 41.0 °F - 41.0 °F 100% 29.91 in 3.0 mi Calm Calm - 0.01 in Rain Light Rain
8:35 AM 41.0 °F - 41.0 °F 100% 29.92 in 4.0 mi Calm Calm - 0.01 in   Overcast
8:55 AM 41.0 °F - 41.0 °F 100% 29.91 in 1.0 mi Calm Calm - 0.04 in   Overcast
9:15 AM 41.0 °F - 41.0 °F 100% 29.92 in 10.0 mi Calm Calm - N/A   Overcast
9:35 AM 42.8 °F 40.1 °F 42.8 °F 100% 29.92 in 10.0 mi WNW 4.6 mph - N/A   Overcast
9:55 AM 42.8 °F 41.1 °F 42.8 °F 100% 29.92 in 10.0 mi WSW 3.5 mph - N/A   Overcast
10:15 AM 42.8 °F - 42.8 °F 100% 29.92 in 3.0 mi Calm Calm - N/A   Overcast
10:35 AM 42.8 °F 41.1 °F 42.8 °F 100% 29.92 in 4.0 mi WSW 3.5 mph - N/A   Overcast
10:55 AM 42.8 °F - 42.8 °F 100% 29.91 in 2.5 mi Calm Calm - N/A   Overcast
11:15 AM 44.6 °F 41.4 °F 44.6 °F 100% 29.91 in 2.5 mi SSW 5.8 mph - N/A   Overcast
11:35 AM 46.4 °F 42.9 °F 46.4 °F 100% 29.90 in 4.0 mi South 6.9 mph - N/A   Overcast
11:55 AM 46.4 °F 44.3 °F 46.4 °F 100% 29.89 in 5.0 mi SSW 4.6 mph - N/A   Overcast
12:15 PM 50.0 °F - 50.0 °F 100% 29.88 in 7.0 mi SSW 8.1 mph - N/A   Overcast
12:35 PM 50.0 °F - 50.0 °F 100% 29.87 in 10.0 mi SW 9.2 mph - N/A   Overcast
12:55 PM 51.8 °F - 50.0 °F 94% 29.86 in 10.0 mi SW 8.1 mph 17.3 mph N/A   Overcast
1:15 PM 53.6 °F - 51.8 °F 94% 29.85 in 10.0 mi SSW 8.1 mph - N/A   Mostly Cloudy
1:35 PM 55.4 °F - 50.0 °F 82% 29.85 in 10.0 mi SW 8.1 mph - N/A   Mostly Cloudy
1:55 PM 59.0 °F - 50.0 °F 72% 29.84 in 10.0 mi SSW 6.9 mph - N/A   Scattered Clouds
2:15 PM 59.0 °F - 50.0 °F 72% 29.85 in 10.0 mi SW 4.6 mph - N/A   Scattered Clouds
2:35 PM 60.8 °F - 50.0 °F 68% 29.85 in 10.0 mi WSW 10.4 mph 16.1 mph N/A   Clear
2:55 PM 62.6 °F - 50.0 °F 63% 29.85 in 10.0 mi SW 5.8 mph - N/A   Clear
3:15 PM 62.6 °F - 50.0 °F 63% 29.85 in 10.0 mi SSW 8.1 mph - N/A   Clear
3:35 PM 62.6 °F - 50.0 °F 63% 29.86 in 10.0 mi SW 6.9 mph - N/A   Clear
3:55 PM 62.6 °F - 48.2 °F 59% 29.86 in 10.0 mi SW 4.6 mph - N/A   Clear
4:15 PM 62.6 °F - 48.2 °F 59% 29.87 in 10.0 mi SW 6.9 mph - N/A   Clear
4:35 PM 62.6 °F - 46.4 °F 55% 29.87 in 10.0 mi WSW 9.2 mph - N/A   Clear
4:55 PM 62.6 °F - 44.6 °F 52% 29.88 in 10.0 mi SW 5.8 mph - N/A   Clear
5:15 PM 60.8 °F - 46.4 °F 59% 29.89 in 10.0 mi SW 5.8 mph - N/A   Clear
5:35 PM 59.0 °F - 46.4 °F 63% 29.91 in 10.0 mi SW 4.6 mph - N/A   Clear
5:55 PM 59.0 °F - 46.4 °F 63% 29.92 in 10.0 mi SSW 4.6 mph - N/A   Clear
6:15 PM 57.2 °F - 44.6 °F 63% 29.93 in 10.0 mi SW 6.9 mph - N/A   Clear
6:35 PM 55.4 °F - 44.6 °F 67% 29.93 in 10.0 mi SW 6.9 mph - N/A   Clear
6:55 PM 55.4 °F - 44.6 °F 67% 29.94 in 10.0 mi SW 5.8 mph - N/A   Clear
7:15 PM 53.6 °F - 44.6 °F 72% 29.95 in 10.0 mi SW 4.6 mph - N/A   Clear
7:35 PM 51.8 °F - 44.6 °F 76% 29.97 in 10.0 mi SW 3.5 mph - N/A   Clear
7:55 PM 51.8 °F - 44.6 °F 76% 29.98 in 10.0 mi West 6.9 mph - N/A   Clear
8:15 PM 51.8 °F - 41.0 °F 67% 30.00 in 10.0 mi NW 6.9 mph - N/A   Clear
8:35 PM 51.8 °F - 35.6 °F 54% 30.01 in 10.0 mi NNW 9.2 mph - N/A   Clear
8:55 PM 50.0 °F - 35.6 °F 58% 30.02 in 10.0 mi NNW 6.9 mph - N/A   Clear
9:15 PM 48.2 °F - 33.8 °F 58% 30.04 in 10.0 mi NW 10.4 mph - N/A   Clear
9:35 PM 46.4 °F 42.9 °F 32.0 °F 57% 30.05 in 10.0 mi NW 6.9 mph - N/A   Clear
9:55 PM 46.4 °F 42.9 °F 32.0 °F 57% 30.06 in 10.0 mi NNW 6.9 mph - N/A   Clear
10:15 PM 44.6 °F 40.2 °F 32.0 °F 61% 30.07 in 10.0 mi NW 8.1 mph - N/A   Clear
10:35 PM 44.6 °F 41.4 °F 32.0 °F 61% 30.07 in 10.0 mi NNW 5.8 mph - N/A   Clear
10:55 PM 44.6 °F 43.1 °F 32.0 °F 61% 30.08 in 10.0 mi WNW 3.5 mph - N/A   Clear
11:15 PM 42.8 °F 40.1 °F 32.0 °F 66% 30.09 in 10.0 mi NNW 4.6 mph - N/A   Clear
11:35 PM 42.8 °F 39.3 °F 32.0 °F 66% 30.12 in 10.0 mi NW 5.8 mph - N/A   Clear
11:55 PM 42.8 °F 39.3 °F 32.0 °F 66% 30.11 in 10.0 mi NW 5.8 mph - N/A   Clear